Terminal Aerodrome Forecast
Issued by NWS Corpus Christi, TX

Home | Current Version | Previous Version | Text Only | Print | Product List | Glossary On
Versions: 1 2 3 4 5 6 7 8 9 10 11 12 13
000
FTUS44 KCRP 161252 AAA
TAFVCT
TAF AMD
KVCT 161252Z 1613/1712 17008KT P6SM SCT015 SCT020 SCT035
      TEMPO 1613/1614 BKN025
     FM161600 18015G22KT P6SM VCSH SCT035 BKN250
     FM162000 16016G23KT P6SM FEW040 SCT250
     FM170300 15011KT P6SM FEW250=

USA.gov is the U.S. government's official web portal to all federal, state and local government web resources and services.